createdAt,value
2023-02-09T00:00:04.361Z,-2.27
2023-02-09T00:02:31.059Z,-2.20
2023-02-09T00:04:57.429Z,-2.18
2023-02-09T00:07:23.809Z,-2.21
2023-02-09T00:09:51.031Z,-2.31
2023-02-09T00:12:35.914Z,-2.33
2023-02-09T00:15:02.310Z,-2.40
2023-02-09T00:17:28.670Z,-2.40
2023-02-09T00:19:55.078Z,-2.40
2023-02-09T00:22:21.724Z,-2.43
2023-02-09T00:24:48.058Z,-2.40
2023-02-09T00:27:14.448Z,-2.47
2023-02-09T00:29:41.048Z,-2.54
2023-02-09T00:32:07.489Z,-2.60
2023-02-09T00:34:33.841Z,-2.65
2023-02-09T00:37:00.419Z,-2.64
2023-02-09T00:39:26.796Z,-2.68
2023-02-09T00:42:08.654Z,-2.73
2023-02-09T00:44:35.845Z,-2.76
2023-02-09T00:47:02.348Z,-2.79
2023-02-09T00:49:29.210Z,-2.82
2023-02-09T00:51:55.618Z,-2.83
2023-02-09T00:54:22.011Z,-2.85
2023-02-09T00:56:49.323Z,-2.89
2023-02-09T00:59:15.690Z,-2.91
2023-02-09T01:01:42.049Z,-2.91
2023-02-09T01:04:08.452Z,-2.96
2023-02-09T01:06:34.870Z,-3.03
2023-02-09T01:09:01.673Z,-3.07
2023-02-09T01:11:29.719Z,-3.11
2023-02-09T01:13:57.223Z,-3.16
2023-02-09T01:16:24.000Z,-3.17
2023-02-09T01:18:50.392Z,-3.19
2023-02-09T01:21:18.893Z,-3.22
2023-02-09T01:23:45.790Z,-3.26
2023-02-09T01:26:12.339Z,-3.30
2023-02-09T01:28:39.040Z,-3.34
2023-02-09T01:31:06.396Z,-3.39
2023-02-09T01:33:32.919Z,-3.38
2023-02-09T01:35:59.894Z,-3.40
2023-02-09T01:38:26.293Z,-3.37
2023-02-09T01:40:52.669Z,-3.39
2023-02-09T01:43:19.084Z,-3.46
2023-02-09T01:45:46.466Z,-3.54
2023-02-09T01:48:12.909Z,-3.59
2023-02-09T01:50:40.868Z,-3.60
2023-02-09T01:53:07.236Z,-3.68
2023-02-09T01:55:36.393Z,-3.67
2023-02-09T01:58:13.933Z,-3.68
2023-02-09T02:00:40.493Z,-3.67
2023-02-09T02:03:08.663Z,-3.71
2023-02-09T02:05:37.104Z,-3.67
2023-02-09T02:08:09.573Z,-3.67
2023-02-09T02:10:35.937Z,-3.65
2023-02-09T02:13:02.340Z,-3.73
2023-02-09T02:16:01.896Z,-3.75
2023-02-09T02:18:43.632Z,-3.67
2023-02-09T02:21:33.659Z,-3.62
2023-02-09T02:24:37.745Z,-3.70
2023-02-09T02:27:14.276Z,-3.76
2023-02-09T02:30:34.231Z,-3.78
2023-02-09T02:33:22.322Z,-3.86
2023-02-09T02:36:26.069Z,-3.92
2023-02-09T02:38:57.087Z,-3.99
2023-02-09T02:41:52.136Z,-4.02
2023-02-09T02:44:18.843Z,-4.01
2023-02-09T02:46:46.957Z,-3.90
2023-02-09T02:49:31.719Z,-3.89
2023-02-09T02:51:59.559Z,-3.97
2023-02-09T02:54:28.276Z,-3.95
2023-02-09T02:57:00.512Z,-4.03
2023-02-09T02:59:29.255Z,-4.06
2023-02-09T03:01:59.056Z,-4.12
2023-02-09T03:04:26.584Z,-4.16
2023-02-09T03:06:53.131Z,-4.17
2023-02-09T03:09:19.526Z,-4.17
2023-02-09T03:11:49.402Z,-4.13
2023-02-09T03:14:41.922Z,-4.12
2023-02-09T03:17:26.807Z,-4.16
2023-02-09T03:19:58.182Z,-4.26
2023-02-09T03:22:33.479Z,-4.32
2023-02-09T03:25:14.484Z,-4.31
2023-02-09T03:28:03.833Z,-4.22
2023-02-09T03:30:31.588Z,-4.16
2023-02-09T03:32:58.029Z,-4.23
2023-02-09T03:35:26.354Z,-4.23
2023-02-09T03:37:52.720Z,-4.28
2023-02-09T03:40:19.401Z,-4.31
2023-02-09T03:42:45.783Z,-4.34
2023-02-09T03:45:12.135Z,-4.32
2023-02-09T03:47:38.748Z,-4.25
2023-02-09T03:50:07.305Z,-4.24
2023-02-09T03:52:33.869Z,-4.24
2023-02-09T03:55:00.219Z,-4.28
2023-02-09T03:57:26.552Z,-4.30
2023-02-09T03:59:52.956Z,-4.34
2023-02-09T04:02:19.363Z,-4.41
2023-02-09T04:04:46.091Z,-4.44
2023-02-09T04:07:13.622Z,-4.54
2023-02-09T04:09:40.069Z,-4.63
2023-02-09T04:12:06.885Z,-4.58
2023-02-09T04:14:33.553Z,-4.58
2023-02-09T04:17:00.104Z,-4.54
2023-02-09T04:19:26.526Z,-4.52
2023-02-09T04:21:52.888Z,-4.46
2023-02-09T04:24:19.514Z,-4.41
2023-02-09T04:26:45.879Z,-4.39
2023-02-09T04:29:12.247Z,-4.38
2023-02-09T04:31:38.731Z,-4.39
2023-02-09T04:34:05.188Z,-4.46
2023-02-09T04:36:31.778Z,-4.50
2023-02-09T04:38:58.147Z,-4.51
2023-02-09T04:41:24.548Z,-4.57
2023-02-09T04:43:51.202Z,-4.57
2023-02-09T04:46:17.868Z,-4.54
2023-02-09T04:48:44.566Z,-4.54
2023-02-09T04:51:10.949Z,-4.61
2023-02-09T04:53:37.408Z,-4.68
2023-02-09T04:56:04.327Z,-4.74
2023-02-09T04:58:49.601Z,-4.78
2023-02-09T05:01:19.660Z,-4.80
2023-02-09T05:03:46.075Z,-4.79
2023-02-09T05:06:12.847Z,-4.80
2023-02-09T05:08:39.201Z,-4.82
2023-02-09T05:11:05.696Z,-4.81
2023-02-09T05:13:32.298Z,-4.84
2023-02-09T05:15:58.692Z,-4.88
2023-02-09T05:18:25.322Z,-4.84
2023-02-09T05:20:54.690Z,-4.82
2023-02-09T05:23:21.115Z,-4.78
2023-02-09T05:25:48.340Z,-4.77
2023-02-09T05:28:15.371Z,-4.76
2023-02-09T05:30:41.911Z,-4.74
2023-02-09T05:33:08.354Z,-4.66
2023-02-09T05:35:34.902Z,-4.67
2023-02-09T05:38:01.499Z,-4.69
2023-02-09T05:40:27.928Z,-4.70
2023-02-09T05:42:54.973Z,-4.69
2023-02-09T05:45:21.352Z,-4.70
2023-02-09T05:47:47.945Z,-4.71
2023-02-09T05:50:15.201Z,-4.73
2023-02-09T05:52:41.658Z,-4.73
2023-02-09T05:55:08.245Z,-4.79
2023-02-09T05:57:34.591Z,-4.86
2023-02-09T06:00:00.951Z,-4.91
2023-02-09T06:02:27.361Z,-4.93
2023-02-09T06:04:53.760Z,-4.91
2023-02-09T06:07:20.148Z,-4.94
2023-02-09T06:09:46.501Z,-4.96
2023-02-09T06:12:12.918Z,-4.98
2023-02-09T06:14:39.479Z,-4.99
2023-02-09T06:17:05.844Z,-4.94
2023-02-09T06:19:32.262Z,-4.95
2023-02-09T06:21:58.928Z,-4.96
2023-02-09T06:24:25.370Z,-5.01
2023-02-09T06:26:51.775Z,-5.09
2023-02-09T06:29:18.150Z,-5.04
2023-02-09T06:31:44.679Z,-5.01
2023-02-09T06:34:11.232Z,-4.94
2023-02-09T06:36:37.631Z,-4.86
2023-02-09T06:39:08.164Z,-4.84
2023-02-09T06:41:34.705Z,-4.86
2023-02-09T06:44:01.089Z,-4.83
2023-02-09T06:46:28.526Z,-4.81
2023-02-09T06:48:54.963Z,-4.84
2023-02-09T06:51:21.846Z,-4.79
2023-02-09T06:53:48.539Z,-4.67
2023-02-09T06:56:15.167Z,-4.59
2023-02-09T06:58:41.719Z,-4.60
2023-02-09T07:01:09.737Z,-4.59
2023-02-09T07:03:36.524Z,-4.58
2023-02-09T07:06:17.776Z,-4.54
2023-02-09T07:08:44.735Z,-4.57
2023-02-09T07:11:15.370Z,-4.54
2023-02-09T07:13:41.770Z,-4.53
2023-02-09T07:16:09.505Z,-4.53
2023-02-09T07:18:36.026Z,-4.56
2023-02-09T07:21:07.660Z,-4.51
2023-02-09T07:23:34.044Z,-4.49
2023-02-09T07:26:04.656Z,-4.44
2023-02-09T07:28:31.241Z,-4.37
2023-02-09T07:31:01.799Z,-4.22
2023-02-09T07:33:28.279Z,-3.92
2023-02-09T07:35:54.627Z,-3.81
2023-02-09T07:38:21.066Z,-3.75
2023-02-09T07:40:47.815Z,-3.69
2023-02-09T07:43:14.365Z,-3.68
2023-02-09T07:45:41.116Z,-3.66
2023-02-09T07:48:07.788Z,-3.65
2023-02-09T07:50:34.147Z,-3.54
2023-02-09T07:53:00.743Z,-3.46
2023-02-09T07:55:27.096Z,-3.41
2023-02-09T07:57:54.001Z,-3.35
2023-02-09T08:00:20.852Z,-3.14
2023-02-09T08:02:47.452Z,-2.94
2023-02-09T08:05:32.305Z,-2.76
2023-02-09T08:07:58.689Z,-2.64
2023-02-09T08:10:26.099Z,-2.56
2023-02-09T08:13:02.905Z,-2.49
2023-02-09T08:15:42.549Z,-2.37
2023-02-09T08:18:15.680Z,-2.30
2023-02-09T08:20:42.287Z,-2.21
2023-02-09T08:23:18.704Z,-2.11
2023-02-09T08:25:45.340Z,-2.04
2023-02-09T08:28:12.163Z,-1.95
2023-02-09T08:30:38.644Z,-1.89
2023-02-09T08:33:05.001Z,-1.82
2023-02-09T08:35:31.645Z,-1.75
2023-02-09T08:38:02.161Z,-1.67
2023-02-09T08:40:29.351Z,-1.59
2023-02-09T08:42:55.953Z,-1.49
2023-02-09T08:45:22.558Z,-1.42
2023-02-09T08:47:49.044Z,-1.33
2023-02-09T08:50:15.803Z,-1.25
2023-02-09T08:52:42.598Z,-1.19
2023-02-09T08:55:09.035Z,-1.08
2023-02-09T08:57:43.859Z,-0.96
2023-02-09T09:00:11.849Z,-0.87
2023-02-09T09:02:38.185Z,-0.75
2023-02-09T09:05:04.864Z,-0.63
2023-02-09T09:07:31.311Z,-0.54
2023-02-09T09:09:57.701Z,-0.43
2023-02-09T09:12:24.138Z,-0.25
2023-02-09T09:14:50.553Z,-0.09
2023-02-09T09:17:17.170Z,-0.02
2023-02-09T09:19:43.649Z,0.03
2023-02-09T09:22:10.241Z,0.17
2023-02-09T09:24:40.529Z,0.22
2023-02-09T09:27:08.306Z,0.29
2023-02-09T09:29:35.770Z,0.35
2023-02-09T09:32:02.295Z,0.44
2023-02-09T09:34:28.788Z,0.52
2023-02-09T09:36:55.138Z,0.57
2023-02-09T09:39:21.552Z,0.66
2023-02-09T09:41:47.994Z,0.73
2023-02-09T09:44:18.918Z,0.78
2023-02-09T09:46:47.106Z,0.83
2023-02-09T09:49:31.774Z,0.90
2023-02-09T09:52:08.521Z,0.95
2023-02-09T09:54:35.207Z,0.98
2023-02-09T09:57:01.816Z,1.02
2023-02-09T09:59:40.190Z,1.08
2023-02-09T10:02:31.451Z,1.14
2023-02-09T10:05:06.936Z,1.18
2023-02-09T10:07:33.556Z,1.21
2023-02-09T10:10:05.092Z,1.26
2023-02-09T10:12:32.875Z,1.28
2023-02-09T10:14:59.453Z,1.29
2023-02-09T10:17:25.801Z,1.34
2023-02-09T10:20:05.568Z,1.34
2023-02-09T10:22:31.933Z,1.37
2023-02-09T10:24:59.403Z,1.39
2023-02-09T10:27:27.158Z,1.46
2023-02-09T10:29:53.578Z,1.46
2023-02-09T10:32:27.739Z,1.43
2023-02-09T10:34:56.737Z,1.47
2023-02-09T10:37:23.378Z,1.50
2023-02-09T10:40:24.968Z,1.48
2023-02-09T10:42:59.292Z,1.50
2023-02-09T10:45:32.734Z,1.54
2023-02-09T10:48:16.910Z,1.55
2023-02-09T10:50:51.496Z,1.60
2023-02-09T10:53:21.411Z,1.64
2023-02-09T10:55:48.110Z,1.69
2023-02-09T10:58:21.805Z,1.72
2023-02-09T11:00:51.053Z,1.83
2023-02-09T11:03:19.971Z,1.94
2023-02-09T11:05:47.662Z,2.07
2023-02-09T11:08:23.668Z,2.13
2023-02-09T11:11:09.356Z,2.28
2023-02-09T11:13:35.797Z,2.34
2023-02-09T11:16:26.091Z,2.39
2023-02-09T11:19:11.404Z,2.42
2023-02-09T11:22:02.662Z,2.46
2023-02-09T11:24:51.549Z,2.47
2023-02-09T11:27:27.257Z,2.36
2023-02-09T11:30:20.063Z,2.35
2023-02-09T11:32:51.522Z,2.49
2023-02-09T11:35:21.251Z,2.58
2023-02-09T11:37:57.167Z,2.69
2023-02-09T11:40:32.710Z,2.81
2023-02-09T11:43:04.563Z,2.94
2023-02-09T11:45:30.918Z,3.03
2023-02-09T11:48:16.180Z,2.97
2023-02-09T11:50:57.864Z,2.97
2023-02-09T11:53:51.128Z,3.10
2023-02-09T11:56:19.761Z,3.26
2023-02-09T11:58:58.239Z,3.21
2023-02-09T12:01:29.970Z,3.25
2023-02-09T12:04:22.811Z,3.25
2023-02-09T12:06:54.955Z,3.28
2023-02-09T12:09:30.653Z,3.26
2023-02-09T12:12:18.833Z,3.29
2023-02-09T12:14:48.392Z,3.28
2023-02-09T12:17:20.123Z,3.27
2023-02-09T12:19:54.846Z,3.33
2023-02-09T12:22:47.966Z,3.51
2023-02-09T12:25:17.568Z,3.51
2023-02-09T12:28:03.244Z,3.55
2023-02-09T12:30:42.132Z,3.64
2023-02-09T12:33:23.688Z,3.73
2023-02-09T12:36:02.308Z,3.75
2023-02-09T12:38:54.513Z,3.92
2023-02-09T12:41:24.251Z,3.82
2023-02-09T12:43:50.759Z,3.86
2023-02-09T12:46:26.537Z,3.82
2023-02-09T12:49:11.403Z,3.91
2023-02-09T12:51:40.841Z,4.01
2023-02-09T12:54:25.595Z,3.94
2023-02-09T12:56:51.969Z,4.08
2023-02-09T12:59:23.075Z,4.12
2023-02-09T13:02:08.197Z,4.16
2023-02-09T13:04:50.370Z,4.23
2023-02-09T13:07:30.315Z,4.30
2023-02-09T13:09:56.705Z,4.25
2023-02-09T13:12:30.137Z,4.17
2023-02-09T13:14:56.785Z,4.18
2023-02-09T13:17:40.145Z,4.15
2023-02-09T13:20:30.812Z,4.06
2023-02-09T13:23:03.572Z,3.96
2023-02-09T13:25:38.321Z,4.08
2023-02-09T13:28:27.091Z,4.05
2023-02-09T13:30:53.509Z,4.05
2023-02-09T13:33:37.379Z,4.09
2023-02-09T13:36:24.787Z,3.97
2023-02-09T13:38:51.614Z,3.94
2023-02-09T13:41:26.377Z,3.96
2023-02-09T13:43:53.008Z,3.91
2023-02-09T13:46:34.123Z,3.98
2023-02-09T13:49:15.349Z,3.99
2023-02-09T13:51:41.775Z,3.99
2023-02-09T13:54:20.029Z,3.96
2023-02-09T13:56:46.532Z,3.97
2023-02-09T13:59:13.765Z,3.97
2023-02-09T14:01:40.255Z,4.02
2023-02-09T14:04:11.990Z,4.09
2023-02-09T14:06:49.856Z,4.05
2023-02-09T14:09:28.431Z,4.07
2023-02-09T14:12:01.630Z,4.08
2023-02-09T14:14:53.282Z,4.07
2023-02-09T14:17:25.912Z,4.02
2023-02-09T14:19:53.395Z,4.02
2023-02-09T14:22:42.161Z,4.00
2023-02-09T14:25:14.720Z,3.96
2023-02-09T14:27:41.543Z,3.99
2023-02-09T14:30:21.508Z,4.00
2023-02-09T14:32:51.965Z,3.98
2023-02-09T14:35:21.875Z,4.03
2023-02-09T14:37:48.936Z,4.00
2023-02-09T14:40:28.031Z,3.97
2023-02-09T14:43:00.366Z,3.94
2023-02-09T14:45:47.682Z,3.87
2023-02-09T14:48:18.636Z,3.89
2023-02-09T14:50:45.507Z,3.85
2023-02-09T14:53:13.376Z,3.76
2023-02-09T14:55:44.282Z,3.73
2023-02-09T14:58:24.311Z,3.76
2023-02-09T15:00:51.785Z,3.71
2023-02-09T15:03:18.157Z,3.70
2023-02-09T15:05:45.059Z,3.67
2023-02-09T15:08:14.692Z,3.65
2023-02-09T15:10:48.781Z,3.57
2023-02-09T15:13:15.188Z,3.53
2023-02-09T15:15:42.476Z,3.56
2023-02-09T15:18:22.963Z,3.52
2023-02-09T15:20:49.571Z,3.49
2023-02-09T15:23:16.055Z,3.46
2023-02-09T15:25:42.426Z,3.41
2023-02-09T15:28:27.755Z,3.35
2023-02-09T15:30:54.946Z,3.31
2023-02-09T15:33:21.272Z,3.28
2023-02-09T15:35:48.113Z,3.24
2023-02-09T15:38:15.278Z,3.24
2023-02-09T15:41:01.915Z,3.22
2023-02-09T15:43:46.972Z,3.16
2023-02-09T15:46:51.896Z,3.14
2023-02-09T15:49:18.301Z,3.11
2023-02-09T15:51:44.696Z,3.04
2023-02-09T15:54:21.460Z,3.01
2023-02-09T15:56:47.877Z,2.93
2023-02-09T15:59:19.195Z,2.91
2023-02-09T16:01:45.794Z,2.87
2023-02-09T16:04:14.170Z,2.87
2023-02-09T16:06:45.116Z,2.82
2023-02-09T16:09:18.302Z,2.81
2023-02-09T16:11:44.698Z,2.76
2023-02-09T16:14:20.334Z,2.69
2023-02-09T16:16:47.326Z,2.68
2023-02-09T16:19:14.018Z,2.65
2023-02-09T16:21:41.674Z,2.65
2023-02-09T16:24:08.158Z,2.62
2023-02-09T16:26:34.553Z,2.58
2023-02-09T16:29:01.004Z,2.55
2023-02-09T16:31:27.501Z,2.51
2023-02-09T16:33:53.910Z,2.46
2023-02-09T16:36:24.387Z,2.40
2023-02-09T16:38:50.898Z,2.37
2023-02-09T16:41:36.492Z,2.36
2023-02-09T16:44:13.307Z,2.33
2023-02-09T16:46:39.749Z,2.29
2023-02-09T16:49:06.127Z,2.23
2023-02-09T16:51:33.407Z,2.23
2023-02-09T16:53:59.754Z,2.16
2023-02-09T16:56:27.462Z,2.11
2023-02-09T16:58:53.829Z,2.13
2023-02-09T17:01:21.479Z,2.13
2023-02-09T17:03:56.932Z,2.13
2023-02-09T17:06:24.617Z,2.15
2023-02-09T17:08:51.142Z,2.14
2023-02-09T17:11:22.455Z,2.11
2023-02-09T17:13:49.149Z,2.09
2023-02-09T17:16:16.595Z,2.06
2023-02-09T17:18:43.121Z,2.05
2023-02-09T17:21:23.783Z,2.00
2023-02-09T17:23:50.536Z,1.97
2023-02-09T17:26:16.912Z,1.95
2023-02-09T17:28:43.341Z,1.92
2023-02-09T17:31:26.537Z,1.89
2023-02-09T17:33:57.771Z,1.85
2023-02-09T17:36:27.322Z,1.82
2023-02-09T17:38:55.239Z,1.79
2023-02-09T17:41:25.341Z,1.76
2023-02-09T17:43:51.688Z,1.70
2023-02-09T17:46:21.106Z,1.70
2023-02-09T17:48:47.900Z,1.65
2023-02-09T17:51:22.369Z,1.62
2023-02-09T17:53:48.922Z,1.56
2023-02-09T17:56:16.805Z,1.53
2023-02-09T17:58:44.418Z,1.53
2023-02-09T18:01:26.547Z,1.51
2023-02-09T18:03:58.487Z,1.48
2023-02-09T18:06:33.665Z,1.45
2023-02-09T18:09:01.612Z,1.42
2023-02-09T18:11:59.566Z,1.43
2023-02-09T18:14:26.345Z,1.39
2023-02-09T18:16:53.501Z,1.37
2023-02-09T18:19:19.936Z,1.37
2023-02-09T18:21:54.159Z,1.36
2023-02-09T18:24:21.300Z,1.35
2023-02-09T18:26:49.521Z,1.35
2023-02-09T18:29:16.083Z,1.39
2023-02-09T18:31:42.472Z,1.43
2023-02-09T18:34:09.346Z,1.49
2023-02-09T18:36:35.838Z,1.49
2023-02-09T18:39:02.354Z,1.55
2023-02-09T18:41:28.807Z,1.62
2023-02-09T18:43:56.122Z,1.67
2023-02-09T18:46:24.512Z,1.73
2023-02-09T18:48:51.412Z,1.78
2023-02-09T18:51:17.812Z,1.82
2023-02-09T18:53:44.488Z,1.84
2023-02-09T18:56:18.304Z,1.88
2023-02-09T18:58:44.731Z,1.92
2023-02-09T19:01:12.116Z,1.91
2023-02-09T19:03:38.604Z,1.97
2023-02-09T19:06:07.823Z,1.98
2023-02-09T19:08:34.236Z,2.01
2023-02-09T19:11:00.721Z,2.02
2023-02-09T19:13:29.383Z,2.06
2023-02-09T19:15:55.808Z,2.05
2023-02-09T19:18:22.173Z,2.05
2023-02-09T19:20:48.756Z,2.09
2023-02-09T19:23:15.161Z,2.10
2023-02-09T19:25:41.600Z,2.10
2023-02-09T19:28:08.316Z,2.11
2023-02-09T19:30:34.750Z,2.11
2023-02-09T19:33:01.991Z,2.14
2023-02-09T19:35:29.349Z,2.14
2023-02-09T19:37:56.732Z,2.15
2023-02-09T19:40:35.718Z,2.15
2023-02-09T19:43:03.185Z,2.15
2023-02-09T19:45:36.177Z,2.16
2023-02-09T19:48:04.248Z,2.15
2023-02-09T19:50:30.611Z,2.17
2023-02-09T19:52:57.337Z,2.18
2023-02-09T19:55:23.743Z,2.18
2023-02-09T19:57:50.240Z,2.19
2023-02-09T20:00:18.106Z,2.18
2023-02-09T20:02:45.704Z,2.17
2023-02-09T20:05:12.130Z,2.17
2023-02-09T20:07:38.598Z,2.19
2023-02-09T20:10:05.408Z,2.19
2023-02-09T20:12:32.116Z,2.19
2023-02-09T20:14:58.470Z,2.21
2023-02-09T20:17:25.109Z,2.23
2023-02-09T20:19:51.472Z,2.23
2023-02-09T20:22:17.967Z,2.26
2023-02-09T20:24:44.417Z,2.26
2023-02-09T20:27:11.184Z,2.25
2023-02-09T20:29:37.624Z,2.24
2023-02-09T20:32:04.160Z,2.23
2023-02-09T20:34:30.545Z,2.23
2023-02-09T20:36:57.488Z,2.23
2023-02-09T20:39:24.033Z,2.22
2023-02-09T20:42:13.533Z,2.22
2023-02-09T20:44:58.597Z,2.23
2023-02-09T20:47:26.208Z,2.24
2023-02-09T20:49:55.370Z,2.26
2023-02-09T20:52:21.741Z,2.20
2023-02-09T20:54:48.092Z,2.20
2023-02-09T20:57:14.476Z,2.22
2023-02-09T20:59:40.870Z,2.21
2023-02-09T21:02:07.530Z,2.19
2023-02-09T21:04:33.908Z,2.16
2023-02-09T21:07:00.464Z,2.16
2023-02-09T21:09:28.134Z,2.15
2023-02-09T21:11:54.870Z,2.15
2023-02-09T21:14:28.085Z,2.17
2023-02-09T21:17:05.194Z,2.15
2023-02-09T21:19:33.496Z,2.15
2023-02-09T21:21:59.885Z,2.16
2023-02-09T21:24:26.332Z,2.14
2023-02-09T21:26:52.760Z,2.17
2023-02-09T21:29:19.134Z,2.16
2023-02-09T21:31:45.670Z,2.17
2023-02-09T21:34:15.755Z,2.16
2023-02-09T21:36:42.122Z,2.16
2023-02-09T21:39:08.549Z,2.16
2023-02-09T21:41:53.601Z,2.17
2023-02-09T21:44:20.004Z,2.16
2023-02-09T21:46:48.025Z,2.16
2023-02-09T21:49:14.420Z,2.17
2023-02-09T21:51:41.822Z,2.17
2023-02-09T21:54:12.049Z,2.18
2023-02-09T21:56:38.400Z,2.15
2023-02-09T21:59:04.824Z,2.15
2023-02-09T22:01:31.267Z,2.14
2023-02-09T22:03:58.312Z,2.15
2023-02-09T22:06:25.414Z,2.16
2023-02-09T22:08:52.298Z,2.15
2023-02-09T22:11:18.674Z,2.15
2023-02-09T22:13:45.234Z,2.13
2023-02-09T22:16:15.599Z,2.15
2023-02-09T22:18:41.953Z,2.16
2023-02-09T22:21:08.574Z,2.20
2023-02-09T22:23:34.960Z,2.21
2023-02-09T22:26:01.829Z,2.23
2023-02-09T22:28:28.354Z,2.23
2023-02-09T22:30:55.085Z,2.25
2023-02-09T22:33:21.710Z,2.23
2023-02-09T22:35:48.638Z,2.21
2023-02-09T22:38:15.245Z,2.19
2023-02-09T22:40:41.818Z,2.20
2023-02-09T22:43:08.174Z,2.18
2023-02-09T22:45:34.940Z,2.18
2023-02-09T22:48:01.338Z,2.17
2023-02-09T22:50:27.909Z,2.17
2023-02-09T22:52:54.270Z,2.16
2023-02-09T22:55:20.610Z,2.16
2023-02-09T22:57:47.232Z,2.17
2023-02-09T23:00:14.186Z,2.18
2023-02-09T23:02:40.556Z,2.15
2023-02-09T23:05:07.034Z,2.17
2023-02-09T23:07:33.413Z,2.18
2023-02-09T23:09:59.770Z,2.17
2023-02-09T23:12:26.150Z,2.16
2023-02-09T23:14:54.535Z,2.18
2023-02-09T23:17:21.318Z,2.16
2023-02-09T23:19:48.019Z,2.16
2023-02-09T23:22:14.555Z,2.17
2023-02-09T23:24:40.908Z,2.15
2023-02-09T23:27:07.297Z,2.16
2023-02-09T23:29:33.658Z,2.17
2023-02-09T23:32:00.253Z,2.17
2023-02-09T23:34:26.672Z,2.18
2023-02-09T23:36:53.326Z,2.18
2023-02-09T23:39:21.020Z,2.19
2023-02-09T23:41:47.370Z,2.21
2023-02-09T23:44:13.836Z,2.22
2023-02-09T23:46:40.389Z,2.20
2023-02-09T23:49:07.067Z,2.21
2023-02-09T23:51:34.390Z,2.23
2023-02-09T23:54:02.756Z,2.29
2023-02-09T23:56:29.860Z,2.32
2023-02-09T23:58:56.247Z,2.37
